TFFR

Pointe-a-Pitre Le Raizet

ICAO Code TFFR
IATA Code PTP
Name Pointe-a-Pitre Le Raizet
Location Pointe-a-Pitre Le Raizet, Guadeloupe, GP
Elevation 36 Feet / 11 Meters
Latitude 16.26530075
Longitude -61.53179932
METAR TFFR 240700Z AUTO VRB02KT 9999 SCT028 BKN039 BKN046 22/21 Q1013
Extra information Display Charts and CFS
Display NOTAMS
Runway Length Width Surface Elevation
12 11499 ft 148 ft ASP 5 ft
30 11499 ft 148 ft ASP 32 ft